createdAt,value
2022-12-19T00:05:28.169Z,8.05
2022-12-19T00:08:32.584Z,10.65
2022-12-19T00:11:34.056Z,17.52
2022-12-19T00:14:35.380Z,7.22
2022-12-19T00:17:36.681Z,11.63
2022-12-19T00:20:38.604Z,6.85
2022-12-19T00:23:39.893Z,8.23
2022-12-19T00:26:41.233Z,11.50
2022-12-19T00:29:42.502Z,11.98
2022-12-19T00:32:43.886Z,11.93
2022-12-19T00:35:45.149Z,9.07
2022-12-19T00:38:46.878Z,10.32
2022-12-19T00:41:48.170Z,15.45
2022-12-19T00:44:52.635Z,11.88
2022-12-19T00:47:54.146Z,8.95
2022-12-19T00:51:02.278Z,9.95
2022-12-19T00:54:05.416Z,10.57
2022-12-19T00:57:08.031Z,14.77
2022-12-19T01:00:09.695Z,8.82
2022-12-19T01:03:11.063Z,9.93
2022-12-19T01:06:12.405Z,10.73
2022-12-19T01:09:13.789Z,7.88
2022-12-19T01:12:33.831Z,7.70
2022-12-19T01:15:38.708Z,7.85
2022-12-19T01:18:39.984Z,10.55
2022-12-19T01:21:41.334Z,11.23
2022-12-19T01:24:42.695Z,13.00
2022-12-19T01:27:44.018Z,22.50
2022-12-19T01:30:45.464Z,14.88
2022-12-19T01:33:47.152Z,15.38
2022-12-19T01:36:51.648Z,12.93
2022-12-19T01:39:52.930Z,8.68
2022-12-19T01:42:54.205Z,13.77
2022-12-19T01:46:00.540Z,13.68
2022-12-19T01:49:02.851Z,9.68
2022-12-19T01:52:06.318Z,11.70
2022-12-19T01:55:09.292Z,9.30
2022-12-19T01:58:11.404Z,11.25
2022-12-19T02:01:13.168Z,9.75
2022-12-19T02:04:14.890Z,14.07
2022-12-19T02:07:17.384Z,12.57
2022-12-19T02:10:18.753Z,11.48
2022-12-19T02:13:20.869Z,8.20
2022-12-19T02:16:37.470Z,10.27
2022-12-19T02:19:41.843Z,6.35
2022-12-19T02:22:43.059Z,10.68
2022-12-19T02:25:51.240Z,10.75
2022-12-19T02:29:01.567Z,10.60
2022-12-19T02:32:07.052Z,8.45
2022-12-19T02:35:14.393Z,11.90
2022-12-19T02:38:36.366Z,11.00
2022-12-19T02:41:44.708Z,9.38
2022-12-19T02:44:48.907Z,9.75
2022-12-19T02:47:50.594Z,8.75
2022-12-19T02:50:51.843Z,7.15
2022-12-19T02:53:53.113Z,14.02
2022-12-19T02:57:07.846Z,9.70
2022-12-19T03:00:09.247Z,12.32
2022-12-19T03:03:27.190Z,16.00
2022-12-19T03:06:34.033Z,12.38
2022-12-19T03:09:51.894Z,11.30
2022-12-19T03:12:57.760Z,10.85
2022-12-19T03:15:59.562Z,17.10
2022-12-19T03:19:00.968Z,9.55
2022-12-19T03:22:02.294Z,12.15
2022-12-19T03:25:03.699Z,9.80
2022-12-19T03:28:07.003Z,12.43
2022-12-19T03:31:09.764Z,9.52
2022-12-19T03:34:17.084Z,14.65
2022-12-19T03:37:20.843Z,11.40
2022-12-19T03:40:23.624Z,11.05
2022-12-19T03:43:26.587Z,8.43
2022-12-19T03:46:28.095Z,10.55
2022-12-19T03:49:29.488Z,16.42
2022-12-19T03:52:55.799Z,9.40
2022-12-19T03:56:06.629Z,10.60
2022-12-19T03:59:10.631Z,12.15
2022-12-19T04:02:13.762Z,12.13
2022-12-19T04:05:19.924Z,10.85
2022-12-19T04:08:21.435Z,16.00
2022-12-19T04:11:26.297Z,12.75
2022-12-19T04:14:33.075Z,8.27
2022-12-19T04:17:42.312Z,10.40
2022-12-19T04:20:45.608Z,11.27
2022-12-19T04:23:49.440Z,13.27
2022-12-19T04:26:53.205Z,10.15
2022-12-19T04:29:55.722Z,13.55
2022-12-19T04:32:57.391Z,16.85
2022-12-19T04:35:59.599Z,11.80
2022-12-19T04:39:00.862Z,11.75
2022-12-19T04:42:02.143Z,7.93
2022-12-19T04:45:04.591Z,9.55
2022-12-19T04:48:06.310Z,13.95
2022-12-19T04:51:09.520Z,20.02
2022-12-19T04:54:10.748Z,17.95
2022-12-19T04:57:12.062Z,15.60
2022-12-19T05:00:13.862Z,14.00
2022-12-19T05:03:15.257Z,12.27
2022-12-19T05:06:18.110Z,7.22
2022-12-19T05:09:19.439Z,9.15
2022-12-19T05:12:20.659Z,8.50
2022-12-19T05:15:21.917Z,8.32
2022-12-19T05:18:23.200Z,10.20
2022-12-19T05:21:24.511Z,9.13
2022-12-19T05:24:25.854Z,9.20
2022-12-19T05:27:27.125Z,20.10
2022-12-19T05:30:28.394Z,15.98
2022-12-19T05:33:29.703Z,12.15
2022-12-19T05:36:32.750Z,15.38
2022-12-19T05:39:34.971Z,13.52
2022-12-19T05:42:36.259Z,8.60
2022-12-19T05:45:38.725Z,12.63
2022-12-19T05:48:40.011Z,16.52
2022-12-19T05:51:41.774Z,9.65
2022-12-19T05:54:43.146Z,11.68
2022-12-19T05:57:44.466Z,14.13
2022-12-19T06:00:45.753Z,11.02
2022-12-19T06:03:47.177Z,16.58
2022-12-19T06:06:48.491Z,9.55
2022-12-19T06:09:49.733Z,14.27
2022-12-19T06:12:51.433Z,10.23
2022-12-19T06:15:59.200Z,11.05
2022-12-19T06:19:00.530Z,9.93
2022-12-19T06:22:01.842Z,11.35
2022-12-19T06:25:03.157Z,8.05
2022-12-19T06:28:04.496Z,13.88
2022-12-19T06:31:06.299Z,9.75
2022-12-19T06:34:09.979Z,10.38
2022-12-19T06:37:11.956Z,9.10
2022-12-19T06:40:33.176Z,11.23
2022-12-19T06:43:34.429Z,14.93
2022-12-19T06:46:36.019Z,8.75
2022-12-19T06:49:37.295Z,9.82
2022-12-19T06:52:38.557Z,15.15
2022-12-19T06:55:40.430Z,10.07
2022-12-19T06:58:41.695Z,12.77
2022-12-19T07:02:00.056Z,8.77
2022-12-19T07:08:03.534Z,7.18
2022-12-19T07:11:04.863Z,8.07
2022-12-19T07:14:06.286Z,10.63
2022-12-19T07:17:10.005Z,7.30
2022-12-19T07:20:11.985Z,10.95
2022-12-19T07:23:16.878Z,11.07
2022-12-19T07:26:18.298Z,10.38
2022-12-19T07:29:19.569Z,13.00
2022-12-19T07:32:21.382Z,14.57
2022-12-19T07:35:23.114Z,8.77
2022-12-19T07:38:24.386Z,12.82
2022-12-19T07:41:25.629Z,12.07
2022-12-19T07:44:26.945Z,12.95
2022-12-19T07:47:28.332Z,14.00
2022-12-19T07:50:30.049Z,9.57
2022-12-19T07:53:31.624Z,11.52
2022-12-19T07:56:32.905Z,9.10
2022-12-19T07:59:39.310Z,9.02
2022-12-19T08:02:40.968Z,8.02
2022-12-19T08:05:42.408Z,13.35
2022-12-19T08:08:43.837Z,17.75
2022-12-19T08:11:45.179Z,13.48
2022-12-19T08:14:46.411Z,13.80
2022-12-19T08:17:47.720Z,18.73
2022-12-19T08:20:49.058Z,16.83
2022-12-19T08:23:50.461Z,17.33
2022-12-19T08:26:51.825Z,12.88
2022-12-19T08:29:53.183Z,13.90
2022-12-19T08:32:54.465Z,14.35
2022-12-19T08:35:55.742Z,17.27
2022-12-19T08:38:58.366Z,12.43
2022-12-19T08:42:00.900Z,15.30
2022-12-19T08:45:02.224Z,10.85
2022-12-19T08:48:03.550Z,10.65
2022-12-19T08:51:06.228Z,7.90
2022-12-19T08:54:07.920Z,11.82
2022-12-19T08:57:13.111Z,7.18
2022-12-19T09:00:14.713Z,10.43
2022-12-19T09:03:18.805Z,11.48
2022-12-19T09:06:23.882Z,13.43
2022-12-19T09:09:25.235Z,9.15
2022-12-19T09:12:26.532Z,12.32
2022-12-19T09:15:27.949Z,8.48
2022-12-19T09:18:29.329Z,13.50
2022-12-19T09:21:30.814Z,10.38
2022-12-19T09:24:32.155Z,9.32
2022-12-19T09:28:09.329Z,8.90
2022-12-19T09:30:58.465Z,8.70
2022-12-19T09:33:59.853Z,11.43
2022-12-19T09:37:01.113Z,9.02
2022-12-19T09:40:02.490Z,11.90
2022-12-19T09:43:06.964Z,11.82
2022-12-19T09:46:15.407Z,9.38
2022-12-19T09:49:18.817Z,12.65
2022-12-19T09:52:30.452Z,9.63
2022-12-19T09:55:36.484Z,10.13
2022-12-19T09:58:41.029Z,12.38
2022-12-19T10:02:08.675Z,14.80
2022-12-19T10:06:49.275Z,7.82
2022-12-19T10:09:22.783Z,15.88
2022-12-19T10:12:45.957Z,15.10
2022-12-19T10:16:00.240Z,12.85
2022-12-19T10:19:07.917Z,14.90
2022-12-19T10:22:32.826Z,15.43
2022-12-19T10:25:53.156Z,14.20
2022-12-19T10:28:57.648Z,13.32
2022-12-19T10:32:17.103Z,14.65
2022-12-19T10:35:19.828Z,13.77
2022-12-19T10:38:27.148Z,11.57
2022-12-19T10:41:30.327Z,13.50
2022-12-19T10:47:35.281Z,9.05
2022-12-19T10:50:36.594Z,11.13
2022-12-19T10:53:37.909Z,11.55
2022-12-19T10:56:39.235Z,11.55
2022-12-19T10:59:52.033Z,10.23
2022-12-19T11:03:04.922Z,14.65
2022-12-19T11:06:06.792Z,12.60
2022-12-19T11:09:20.072Z,13.98
2022-12-19T11:16:46.521Z,12.18
2022-12-19T11:19:46.020Z,11.98
2022-12-19T11:29:36.812Z,11.60
2022-12-19T11:29:41.073Z,12.88
2022-12-19T11:30:45.891Z,16.02
2022-12-19T11:33:14.007Z,13.98
2022-12-19T11:36:34.832Z,10.93
2022-12-19T11:39:45.841Z,14.07
2022-12-19T11:42:47.075Z,12.65
2022-12-19T11:45:48.321Z,15.57
2022-12-19T11:48:54.943Z,16.80
2022-12-19T11:52:00.835Z,20.65
2022-12-19T11:55:22.442Z,15.45
2022-12-19T11:58:24.697Z,9.77
2022-12-19T12:01:42.629Z,14.48
2022-12-19T12:04:55.087Z,16.80
2022-12-19T12:09:48.718Z,13.68
2022-12-19T12:22:00.973Z,11.68
2022-12-19T12:28:58.898Z,17.45
2022-12-19T12:31:48.344Z,19.63
2022-12-19T12:31:49.442Z,12.73
2022-12-19T12:32:00.572Z,16.15
2022-12-19T12:35:34.979Z,11.65
2022-12-19T12:40:38.519Z,14.50
2022-12-19T12:43:46.063Z,11.35
2022-12-19T12:46:56.997Z,14.50
2022-12-19T12:50:03.036Z,13.15
2022-12-19T12:53:07.323Z,14.40
2022-12-19T12:56:10.590Z,14.80
2022-12-19T12:59:23.883Z,18.02
2022-12-19T13:02:25.654Z,15.63
2022-12-19T13:05:45.625Z,12.05
2022-12-19T13:08:47.791Z,14.18
2022-12-19T13:12:22.280Z,13.57
2022-12-19T13:15:34.212Z,13.45
2022-12-19T13:18:37.889Z,15.38
2022-12-19T13:21:58.227Z,11.88
2022-12-19T13:25:00.283Z,19.05
2022-12-19T13:28:01.591Z,11.75
2022-12-19T13:31:20.273Z,13.10
2022-12-19T13:34:33.378Z,12.77
2022-12-19T13:39:57.118Z,12.43
2022-12-19T13:41:23.098Z,14.27
2022-12-19T13:44:24.460Z,15.52
2022-12-19T13:47:27.886Z,10.25
2022-12-19T13:50:39.337Z,11.73
2022-12-19T13:56:41.768Z,13.80
2022-12-19T13:59:59.135Z,14.10
2022-12-19T14:03:03.044Z,12.57
2022-12-19T14:06:24.902Z,13.45
2022-12-19T14:11:30.424Z,15.60
2022-12-19T14:13:57.463Z,17.13
2022-12-19T14:16:43.541Z,14.30
2022-12-19T14:19:47.620Z,14.55
2022-12-19T14:22:49.003Z,13.90
2022-12-19T14:28:17.341Z,11.90
2022-12-19T14:29:52.290Z,15.40
2022-12-19T14:33:45.140Z,11.77
2022-12-19T14:36:15.227Z,20.90
2022-12-19T14:39:29.459Z,20.50
2022-12-19T14:43:59.060Z,15.75
2022-12-19T14:51:51.709Z,15.20
2022-12-19T14:54:24.479Z,16.27
2022-12-19T14:54:51.480Z,14.85
2022-12-19T14:57:01.533Z,22.55
2022-12-19T15:01:07.304Z,14.15
2022-12-19T15:03:44.430Z,10.55
2022-12-19T15:07:12.548Z,13.73
2022-12-19T15:11:06.266Z,11.80
2022-12-19T15:14:55.303Z,12.68
2022-12-19T15:17:22.812Z,13.98
2022-12-19T15:20:24.141Z,8.68
2022-12-19T15:23:25.752Z,11.85
2022-12-19T15:26:32.461Z,13.57
2022-12-19T15:29:34.151Z,15.95
2022-12-19T15:32:35.403Z,11.85
2022-12-19T15:35:36.706Z,15.60
2022-12-19T15:38:37.940Z,12.50
2022-12-19T15:41:39.289Z,12.13
2022-12-19T15:44:41.355Z,13.43
2022-12-19T15:47:43.035Z,13.90
2022-12-19T15:50:44.545Z,17.95
2022-12-19T15:53:45.933Z,16.50
2022-12-19T15:56:52.524Z,14.18
2022-12-19T15:59:54.334Z,14.68
2022-12-19T16:03:22.571Z,17.23
2022-12-19T16:06:17.625Z,16.85
2022-12-19T16:09:20.885Z,17.00
2022-12-19T16:12:24.228Z,11.73
2022-12-19T16:15:29.954Z,17.08
2022-12-19T16:22:35.111Z,17.67
2022-12-19T16:25:39.599Z,16.05
2022-12-19T16:28:41.490Z,15.73
2022-12-19T16:31:42.873Z,20.73
2022-12-19T16:34:44.214Z,15.23
2022-12-19T16:37:45.552Z,17.88
2022-12-19T16:40:48.023Z,20.10
2022-12-19T16:43:49.547Z,23.80
2022-12-19T16:46:51.789Z,21.38
2022-12-19T16:49:53.167Z,19.60
2022-12-19T16:52:54.841Z,21.23
2022-12-19T16:55:56.565Z,21.05
2022-12-19T16:58:59.805Z,16.67
2022-12-19T17:02:01.289Z,16.58
2022-12-19T17:05:04.089Z,22.17
2022-12-19T17:08:11.210Z,22.27
2022-12-19T17:11:14.390Z,16.63
2022-12-19T17:14:23.426Z,18.15
2022-12-19T17:17:25.191Z,14.30
2022-12-19T17:20:28.431Z,18.88
2022-12-19T17:23:32.243Z,12.68
2022-12-19T17:26:33.574Z,13.75
2022-12-19T17:29:34.849Z,19.13
2022-12-19T17:32:36.191Z,12.88
2022-12-19T17:35:38.009Z,15.93
2022-12-19T17:38:39.345Z,11.68
2022-12-19T17:41:40.629Z,18.98
2022-12-19T17:44:41.906Z,19.17
2022-12-19T17:47:44.119Z,14.82
2022-12-19T17:50:45.391Z,27.45
2022-12-19T17:53:46.672Z,24.13
2022-12-19T17:56:47.975Z,18.50
2022-12-19T17:59:49.285Z,22.55
2022-12-19T18:02:52.683Z,22.55
2022-12-19T18:05:54.674Z,17.83
2022-12-19T18:08:55.949Z,22.17
2022-12-19T18:11:57.415Z,23.02
2022-12-19T18:14:58.757Z,19.35
2022-12-19T18:18:00.238Z,20.17
2022-12-19T18:21:02.164Z,22.58
2022-12-19T18:24:03.581Z,23.58
2022-12-19T18:27:05.321Z,22.10
2022-12-19T18:30:07.070Z,18.80
2022-12-19T18:33:11.640Z,21.73
2022-12-19T18:36:22.920Z,22.20
2022-12-19T18:39:25.305Z,23.98
2022-12-19T18:42:26.588Z,24.95
2022-12-19T18:45:30.425Z,22.40
2022-12-19T18:48:33.423Z,21.40
2022-12-19T18:51:34.742Z,24.05
2022-12-19T18:54:36.098Z,16.63
2022-12-19T18:57:37.376Z,16.00
2022-12-19T19:00:39.097Z,15.85
2022-12-19T19:03:41.226Z,8.38
2022-12-19T19:06:50.451Z,18.63
2022-12-19T19:09:53.738Z,14.90
2022-12-19T19:12:55.368Z,21.20
2022-12-19T19:16:01.438Z,23.10
2022-12-19T19:19:04.441Z,23.42
2022-12-19T19:22:05.851Z,25.48
2022-12-19T19:25:07.344Z,29.05
2022-12-19T19:28:08.638Z,21.85
2022-12-19T19:31:11.130Z,18.52
2022-12-19T19:34:15.475Z,23.30
2022-12-19T19:37:16.933Z,21.80
2022-12-19T19:40:18.588Z,26.70
2022-12-19T19:43:19.865Z,26.33
2022-12-19T19:46:21.748Z,23.60
2022-12-19T19:49:23.362Z,27.25
2022-12-19T19:52:24.649Z,25.67
2022-12-19T19:55:26.299Z,21.33
2022-12-19T19:58:28.377Z,30.73
2022-12-19T20:01:29.685Z,30.75
2022-12-19T20:04:31.224Z,25.02
2022-12-19T20:07:32.619Z,29.48
2022-12-19T20:10:33.931Z,31.05
2022-12-19T20:13:35.338Z,25.15
2022-12-19T20:16:36.773Z,21.58
2022-12-19T20:19:38.518Z,31.95
2022-12-19T20:22:39.895Z,30.83
2022-12-19T20:25:43.155Z,32.22
2022-12-19T20:28:48.910Z,25.27
2022-12-19T20:31:51.406Z,26.60
2022-12-19T20:34:52.753Z,30.63
2022-12-19T20:37:54.030Z,28.08
2022-12-19T20:40:55.972Z,18.88
2022-12-19T20:43:57.335Z,24.98
2022-12-19T20:46:59.095Z,33.33
2022-12-19T20:50:00.533Z,28.13
2022-12-19T20:53:01.820Z,23.85
2022-12-19T20:56:04.264Z,26.58
2022-12-19T20:59:05.635Z,24.35
2022-12-19T21:02:07.181Z,24.33
2022-12-19T21:05:08.914Z,28.45
2022-12-19T21:08:10.283Z,29.85
2022-12-19T21:11:11.934Z,20.85
2022-12-19T21:14:13.242Z,24.83
2022-12-19T21:17:14.620Z,28.33
2022-12-19T21:20:15.944Z,20.17
2022-12-19T21:23:17.854Z,25.80
2022-12-19T21:26:19.293Z,27.42
2022-12-19T21:29:20.646Z,27.52
2022-12-19T21:32:22.152Z,26.98
2022-12-19T21:35:23.476Z,23.10
2022-12-19T21:38:24.869Z,30.55
2022-12-19T21:41:26.372Z,28.27
2022-12-19T21:44:27.749Z,23.23
2022-12-19T21:47:29.055Z,21.85
2022-12-19T21:50:30.466Z,33.30
2022-12-19T21:53:31.869Z,33.75
2022-12-19T21:56:35.475Z,23.63
2022-12-19T21:59:36.835Z,12.95
2022-12-19T22:02:38.528Z,22.98
2022-12-19T22:05:39.968Z,21.73
2022-12-19T22:08:41.317Z,16.52
2022-12-19T22:11:43.057Z,13.57
2022-12-19T22:14:44.949Z,17.83
2022-12-19T22:17:46.244Z,10.85
2022-12-19T22:20:47.547Z,9.23
2022-12-19T22:23:48.893Z,11.35
2022-12-19T22:26:50.526Z,10.95
2022-12-19T22:29:51.843Z,14.15
2022-12-19T22:32:53.171Z,15.07
2022-12-19T22:35:54.472Z,12.13
2022-12-19T22:38:56.971Z,14.18
2022-12-19T22:41:58.280Z,19.08
2022-12-19T22:44:59.695Z,17.27
2022-12-19T22:48:01.018Z,20.40
2022-12-19T22:51:02.344Z,17.33
2022-12-19T22:54:04.262Z,17.02
2022-12-19T22:57:05.523Z,13.13
2022-12-19T23:00:07.498Z,15.75
2022-12-19T23:03:08.982Z,15.20
2022-12-19T23:06:10.772Z,16.05
2022-12-19T23:09:13.703Z,19.30
2022-12-19T23:12:15.012Z,20.65
2022-12-19T23:15:16.325Z,15.95
2022-12-19T23:18:17.908Z,17.70
2022-12-19T23:21:20.218Z,17.30
2022-12-19T23:24:21.499Z,15.00
2022-12-19T23:27:23.043Z,14.90
2022-12-19T23:30:24.320Z,18.00
2022-12-19T23:33:25.579Z,16.05
2022-12-19T23:37:01.015Z,16.55
2022-12-19T23:39:48.394Z,16.17
2022-12-19T23:42:49.717Z,13.50
2022-12-19T23:45:51.061Z,16.17
2022-12-19T23:48:53.052Z,15.80
2022-12-19T23:51:54.392Z,16.00
2022-12-19T23:54:55.710Z,17.27
2022-12-19T23:57:56.993Z,14.05
